Frank Wiley Field Miles City US
ICAO: KMLS
IATA: MLS
Category: Medium
Scheduled Services: Yes

Elevation: 2630 ft
TransAlt. 18000 ft.

Airport Communications:
ASOS:135.575
GREAT FALLS RDO:122.2
CTAF/UNICOM:123

KMLS Zoom In..

Runways:

(A) RW 04 length 5680 ft width 75 ft
---- / hdg 40

(B) RW 12 length 5628 ft width 100 ft
---- / hdg 123

(C) RW 22 length 5680 ft width 75 ft
---- / hdg 220

(D) RW 30 length 5628 ft width 100 ft
---- / hdg 303

Location; KMLS
Day. 21 / Time. 23.53 Zulu
* Altimeter: 30.04
* Temperature: -03° c. -26.6°f.
* Wind from: 160° Speed 03 kn.
Dewpoint: -08° c.
Visibility: 10 Statute Miles.
Clouds: Clear (automated report).

KMLS 212353Z AUTO 16003KT 10SM CLR M03/M08 A3004 RMK AO2 SLP211 T10331078 11022 21078 53005


Wind From 160°
Speed 03 kn.

jpsM music video
CHECK IT OUT

jpsM - It Moves..

 
jpsmedia.com for Web Design  worldairports.se 2018   terms of use